sensor_id;sensor_type;location;lat;lon;timestamp;pressure;altitude;pressure_sealevel;temperature;humidity
52953;BME280;38815;55.932;-3.232;2022-09-21T00:02:23;101615.34;;;18.82;63.74
52953;BME280;38815;55.932;-3.232;2022-09-21T00:04:48;101616.88;;;18.83;63.44
52953;BME280;38815;55.932;-3.232;2022-09-21T00:07:15;101623.06;;;18.81;63.56
52953;BME280;38815;55.932;-3.232;2022-09-21T00:09:40;101624.09;;;18.84;63.72
52953;BME280;38815;55.932;-3.232;2022-09-21T00:12:06;101618.94;;;18.82;63.66
52953;BME280;38815;55.932;-3.232;2022-09-21T00:14:31;101624.34;;;18.80;63.44
52953;BME280;38815;55.932;-3.232;2022-09-21T00:16:57;101619.97;;;18.79;63.20
52953;BME280;38815;55.932;-3.232;2022-09-21T00:19:23;101619.97;;;18.79;63.13
52953;BME280;38815;55.932;-3.232;2022-09-21T00:21:48;101619.97;;;18.79;63.45
52953;BME280;38815;55.932;-3.232;2022-09-21T00:24:20;101618.44;;;18.78;63.22
52953;BME280;38815;55.932;-3.232;2022-09-21T00:26:46;101620.50;;;18.77;63.35
52953;BME280;38815;55.932;-3.232;2022-09-21T00:29:11;101616.88;;;18.77;63.51
52953;BME280;38815;55.932;-3.232;2022-09-21T00:31:38;101621.00;;;18.76;63.41
52953;BME280;38815;55.932;-3.232;2022-09-21T00:34:09;101619.72;;;18.77;63.28
52953;BME280;38815;55.932;-3.232;2022-09-21T00:36:35;101622.53;;;18.77;63.41
52953;BME280;38815;55.932;-3.232;2022-09-21T00:39:00;101619.72;;;18.77;63.66
52953;BME280;38815;55.932;-3.232;2022-09-21T00:41:26;101612.00;;;18.77;63.73
52953;BME280;38815;55.932;-3.232;2022-09-21T00:44:19;101614.56;;;18.75;63.46
52953;BME280;38815;55.932;-3.232;2022-09-21T00:46:48;101608.94;;;18.75;63.49
52953;BME280;38815;55.932;-3.232;2022-09-21T00:49:14;101609.72;;;18.76;63.40
52953;BME280;38815;55.932;-3.232;2022-09-21T00:51:40;101613.31;;;18.77;63.30
52953;BME280;38815;55.932;-3.232;2022-09-21T00:54:07;101608.41;;;18.77;63.67
52953;BME280;38815;55.932;-3.232;2022-09-21T00:56:34;101609.44;;;18.74;63.17
52953;BME280;38815;55.932;-3.232;2022-09-21T00:59:00;101604.84;;;18.77;63.58
52953;BME280;38815;55.932;-3.232;2022-09-21T01:01:27;101603.53;;;18.77;63.67
52953;BME280;38815;55.932;-3.232;2022-09-21T01:03:52;101608.66;;;18.79;63.50
52953;BME280;38815;55.932;-3.232;2022-09-21T01:06:21;101604.06;;;18.82;63.63
52953;BME280;38815;55.932;-3.232;2022-09-21T01:08:48;101610.44;;;18.82;63.41
52953;BME280;38815;55.932;-3.232;2022-09-21T01:21:29;101614.56;;;18.81;63.32
52953;BME280;38815;55.932;-3.232;2022-09-21T01:24:02;101615.09;;;18.80;63.21
52953;BME280;38815;55.932;-3.232;2022-09-21T01:26:41;101610.22;;;18.80;63.44
52953;BME280;38815;55.932;-3.232;2022-09-21T01:32:00;101603.00;;;18.79;62.84
52953;BME280;38815;55.932;-3.232;2022-09-21T01:34:31;101596.63;;;18.79;62.61
52953;BME280;38815;55.932;-3.232;2022-09-21T01:36:59;101599.94;;;18.77;62.78
52953;BME280;38815;55.932;-3.232;2022-09-21T01:39:25;101602.28;;;18.79;62.67
52953;BME280;38815;55.932;-3.232;2022-09-21T01:41:52;101606.38;;;18.77;62.75
52953;BME280;38815;55.932;-3.232;2022-09-21T01:44:19;101596.63;;;18.79;62.82
52953;BME280;38815;55.932;-3.232;2022-09-21T01:46:46;101597.09;;;18.77;62.84
52953;BME280;38815;55.932;-3.232;2022-09-21T01:49:15;101600.72;;;18.77;62.67
52953;BME280;38815;55.932;-3.232;2022-09-21T01:51:44;101601.22;;;18.76;62.62
52953;BME280;38815;55.932;-3.232;2022-09-21T01:54:15;101599.19;;;18.77;62.89
52953;BME280;38815;55.932;-3.232;2022-09-21T01:56:46;101602.00;;;18.77;62.30
52953;BME280;38815;55.932;-3.232;2022-09-21T01:59:33;101594.81;;;18.75;62.38
52953;BME280;38815;55.932;-3.232;2022-09-21T02:02:03;101598.41;;;18.76;62.38
52953;BME280;38815;55.932;-3.232;2022-09-21T02:04:33;101600.44;;;18.75;62.31
52953;BME280;38815;55.932;-3.232;2022-09-21T02:07:00;101595.31;;;18.74;62.39
52953;BME280;38815;55.932;-3.232;2022-09-21T02:09:25;101596.09;;;18.74;62.86
52953;BME280;38815;55.932;-3.232;2022-09-21T02:11:51;101601.75;;;18.74;62.47
52953;BME280;38815;55.932;-3.232;2022-09-21T02:14:21;101603.78;;;18.74;62.97
52953;BME280;38815;55.932;-3.232;2022-09-21T02:22:16;101598.16;;;18.74;62.39
52953;BME280;38815;55.932;-3.232;2022-09-21T02:24:45;101598.66;;;18.72;62.25
52953;BME280;38815;55.932;-3.232;2022-09-21T02:29:57;101591.50;;;18.71;62.50
52953;BME280;38815;55.932;-3.232;2022-09-21T02:34:56;101596.38;;;18.71;62.35
52953;BME280;38815;55.932;-3.232;2022-09-21T02:38:28;101596.38;;;18.71;62.80
52953;BME280;38815;55.932;-3.232;2022-09-21T02:42:55;101591.22;;;18.69;62.23
52953;BME280;38815;55.932;-3.232;2022-09-21T02:45:21;101587.63;;;18.69;62.35
52953;BME280;38815;55.932;-3.232;2022-09-21T02:47:53;101586.09;;;18.68;62.21
52953;BME280;38815;55.932;-3.232;2022-09-21T02:50:22;101584.81;;;18.69;62.22
52953;BME280;38815;55.932;-3.232;2022-09-21T02:52:49;101586.84;;;18.68;62.02
52953;BME280;38815;55.932;-3.232;2022-09-21T02:55:16;101579.94;;;18.69;62.22
52953;BME280;38815;55.932;-3.232;2022-09-21T02:57:42;101573.50;;;18.69;62.20
52953;BME280;38815;55.932;-3.232;2022-09-21T03:00:08;101573.50;;;18.69;62.25
52953;BME280;38815;55.932;-3.232;2022-09-21T03:02:35;101569.16;;;18.68;62.30
52953;BME280;38815;55.932;-3.232;2022-09-21T03:05:00;101569.91;;;18.68;62.13
52953;BME280;38815;55.932;-3.232;2022-09-21T03:07:26;101566.31;;;18.68;62.21
52953;BME280;38815;55.932;-3.232;2022-09-21T03:09:51;101567.06;;;18.68;62.14
52953;BME280;38815;55.932;-3.232;2022-09-21T03:12:16;101559.91;;;18.67;62.08
52953;BME280;38815;55.932;-3.232;2022-09-21T03:14:42;101555.56;;;18.66;62.12
52953;BME280;38815;55.932;-3.232;2022-09-21T03:17:07;101554.78;;;18.66;62.19
52953;BME280;38815;55.932;-3.232;2022-09-21T03:19:33;101546.31;;;18.66;62.36
52953;BME280;38815;55.932;-3.232;2022-09-21T03:21:58;101541.44;;;18.66;62.56
52953;BME280;38815;55.932;-3.232;2022-09-21T03:24:24;101542.69;;;18.65;62.25
52953;BME280;38815;55.932;-3.232;2022-09-21T03:27:08;101542.69;;;18.65;62.09
52953;BME280;38815;55.932;-3.232;2022-09-21T03:29:33;101536.28;;;18.65;61.94
52953;BME280;38815;55.932;-3.232;2022-09-21T03:31:58;101540.41;;;18.64;62.11
52953;BME280;38815;55.932;-3.232;2022-09-21T03:34:24;101538.34;;;18.64;61.88
52953;BME280;38815;55.932;-3.232;2022-09-21T03:36:49;101536.78;;;18.63;61.81
52953;BME280;38815;55.932;-3.232;2022-09-21T03:39:14;101533.22;;;18.63;61.61
52953;BME280;38815;55.932;-3.232;2022-09-21T03:41:40;101526.00;;;18.62;62.03
52953;BME280;38815;55.932;-3.232;2022-09-21T03:44:05;101528.84;;;18.62;61.79
52953;BME280;38815;55.932;-3.232;2022-09-21T03:46:30;101528.06;;;18.61;61.87
52953;BME280;38815;55.932;-3.232;2022-09-21T03:48:59;101521.91;;;18.63;61.81
52953;BME280;38815;55.932;-3.232;2022-09-21T03:51:24;101519.59;;;18.61;61.83
52953;BME280;38815;55.932;-3.232;2022-09-21T03:53:49;101520.38;;;18.62;62.09
52953;BME280;38815;55.932;-3.232;2022-09-21T03:56:15;101526.00;;;18.62;61.79
52953;BME280;38815;55.932;-3.232;2022-09-21T03:58:40;101528.06;;;18.61;62.10
52953;BME280;38815;55.932;-3.232;2022-09-21T04:01:05;101527.31;;;18.61;62.14
52953;BME280;38815;55.932;-3.232;2022-09-21T04:03:31;101524.47;;;18.61;61.80
52953;BME280;38815;55.932;-3.232;2022-09-21T04:05:56;101520.88;;;18.60;61.96
52953;BME280;38815;55.932;-3.232;2022-09-21T04:08:25;101518.84;;;18.61;62.42
52953;BME280;38815;55.932;-3.232;2022-09-21T04:10:50;101516.53;;;18.59;62.11
52953;BME280;38815;55.932;-3.232;2022-09-21T04:13:16;101515.25;;;18.60;61.71
52953;BME280;38815;55.932;-3.232;2022-09-21T04:15:41;101510.09;;;18.59;61.53
52953;BME280;38815;55.932;-3.232;2022-09-21T04:18:07;101510.88;;;18.59;61.71
52953;BME280;38815;55.932;-3.232;2022-09-21T04:20:32;101507.28;;;18.59;61.86
52953;BME280;38815;55.932;-3.232;2022-09-21T04:22:57;101500.09;;;18.58;61.62
52953;BME280;38815;55.932;-3.232;2022-09-21T04:25:24;101517.81;;;18.58;61.54
52953;BME280;38815;55.932;-3.232;2022-09-21T04:27:49;101513.44;;;18.57;61.55
52953;BME280;38815;55.932;-3.232;2022-09-21T04:30:16;101507.81;;;18.57;61.60
52953;BME280;38815;55.932;-3.232;2022-09-21T04:32:42;101510.63;;;18.57;61.56
52953;BME280;38815;55.932;-3.232;2022-09-21T04:35:07;101507.03;;;18.57;61.39
52953;BME280;38815;55.932;-3.232;2022-09-21T04:37:33;101510.63;;;18.57;61.85
52953;BME280;38815;55.932;-3.232;2022-09-21T04:39:58;101509.06;;;18.56;61.45
52953;BME280;38815;55.932;-3.232;2022-09-21T04:42:24;101519.09;;;18.57;61.81
52953;BME280;38815;55.932;-3.232;2022-09-21T04:44:49;101513.97;;;18.56;61.69
52953;BME280;38815;55.932;-3.232;2022-09-21T04:47:15;101507.53;;;18.55;61.44
52953;BME280;38815;55.932;-3.232;2022-09-21T04:49:40;101506.78;;;18.55;61.44
52953;BME280;38815;55.932;-3.232;2022-09-21T04:52:06;101496.78;;;18.54;61.41
52953;BME280;38815;55.932;-3.232;2022-09-21T04:54:31;101504.47;;;18.53;61.24
52953;BME280;38815;55.932;-3.232;2022-09-21T04:56:56;101503.19;;;18.54;61.40
52953;BME280;38815;55.932;-3.232;2022-09-21T04:59:21;101496.78;;;18.54;61.66
52953;BME280;38815;55.932;-3.232;2022-09-21T05:01:47;101490.34;;;18.53;61.54
52953;BME280;38815;55.932;-3.232;2022-09-21T05:04:12;101496.78;;;18.54;61.46
52953;BME280;38815;55.932;-3.232;2022-09-21T05:06:37;101491.66;;;18.52;61.71
52953;BME280;38815;55.932;-3.232;2022-09-21T05:09:03;101495.00;;;18.51;61.65
52953;BME280;38815;55.932;-3.232;2022-09-21T05:11:46;101497.28;;;18.52;61.55
52953;BME280;38815;55.932;-3.232;2022-09-21T05:14:12;101494.16;;;18.61;61.70
52953;BME280;38815;55.932;-3.232;2022-09-21T05:16:37;101500.34;;;18.60;62.14
52953;BME280;38815;55.932;-3.232;2022-09-21T05:19:02;101496.50;;;18.57;62.32
52953;BME280;38815;55.932;-3.232;2022-09-21T05:21:28;101499.84;;;18.56;62.18
52953;BME280;38815;55.932;-3.232;2022-09-21T05:23:55;101499.59;;;18.54;62.45
52953;BME280;38815;55.932;-3.232;2022-09-21T05:26:21;101500.38;;;18.54;62.47
52953;BME280;38815;55.932;-3.232;2022-09-21T05:28:47;101504.47;;;18.53;62.15
52953;BME280;38815;55.932;-3.232;2022-09-21T05:34:04;101504.97;;;18.52;62.07
52953;BME280;38815;55.932;-3.232;2022-09-21T05:38:56;101502.94;;;18.52;62.20
52953;BME280;38815;55.932;-3.232;2022-09-21T05:41:21;101501.38;;;18.51;62.15
52953;BME280;38815;55.932;-3.232;2022-09-21T05:43:47;101501.38;;;18.51;62.03
52953;BME280;38815;55.932;-3.232;2022-09-21T05:46:19;101497.03;;;18.50;62.43
52953;BME280;38815;55.932;-3.232;2022-09-21T05:48:56;101492.38;;;18.53;62.48
52953;BME280;38815;55.932;-3.232;2022-09-21T05:51:32;101503.47;;;18.51;62.30
52953;BME280;38815;55.932;-3.232;2022-09-21T06:04:17;101502.94;;;18.52;62.51
52953;BME280;38815;55.932;-3.232;2022-09-21T06:06:42;101493.69;;;18.52;62.17
52953;BME280;38815;55.932;-3.232;2022-09-21T06:09:08;101494.22;;;18.50;61.79
52953;BME280;38815;55.932;-3.232;2022-09-21T06:11:33;101500.63;;;18.51;61.83
52953;BME280;38815;55.932;-3.232;2022-09-21T06:13:59;101498.56;;;18.51;61.60
52953;BME280;38815;55.932;-3.232;2022-09-21T06:16:25;101494.47;;;18.52;62.11
52953;BME280;38815;55.932;-3.232;2022-09-21T06:18:50;101494.47;;;18.52;61.59
52953;BME280;38815;55.932;-3.232;2022-09-21T06:21:15;101490.09;;;18.51;62.10
52953;BME280;38815;55.932;-3.232;2022-09-21T06:23:40;101487.00;;;18.55;61.88
52953;BME280;38815;55.932;-3.232;2022-09-21T06:26:06;101495.47;;;18.55;61.99
52953;BME280;38815;55.932;-3.232;2022-09-21T06:28:31;101493.69;;;18.52;61.75
52953;BME280;38815;55.932;-3.232;2022-09-21T06:30:56;101493.44;;;18.50;62.15
52953;BME280;38815;55.932;-3.232;2022-09-21T06:33:22;101494.22;;;18.50;62.41
52953;BME280;38815;55.932;-3.232;2022-09-21T06:35:56;101486.50;;;18.51;61.91
52953;BME280;38815;55.932;-3.232;2022-09-21T06:38:23;101478.00;;;18.56;62.62
52953;BME280;38815;55.932;-3.232;2022-09-21T06:40:48;101494.47;;;18.58;62.60
52953;BME280;38815;55.932;-3.232;2022-09-21T06:43:13;101479.56;;;18.52;62.54
52953;BME280;38815;55.932;-3.232;2022-09-21T06:45:39;101487.00;;;18.60;61.46
52953;BME280;38815;55.932;-3.232;2022-09-21T06:48:09;101489.28;;;18.62;61.94
52953;BME280;38815;55.932;-3.232;2022-09-21T06:50:34;101488.25;;;18.65;62.49
52953;BME280;38815;55.932;-3.232;2022-09-21T06:53:00;101496.97;;;18.67;62.81
52953;BME280;38815;55.932;-3.232;2022-09-21T06:55:26;101492.63;;;18.66;62.61
52953;BME280;38815;55.932;-3.232;2022-09-21T06:57:58;101483.38;;;18.71;62.56
52953;BME280;38815;55.932;-3.232;2022-09-21T07:00:23;101481.06;;;18.75;61.98
52953;BME280;38815;55.932;-3.232;2022-09-21T07:02:49;101485.94;;;18.69;62.29
52953;BME280;38815;55.932;-3.232;2022-09-21T07:05:14;101479.03;;;18.64;62.17
52953;BME280;38815;55.932;-3.232;2022-09-21T07:07:42;101474.66;;;18.63;62.37
52953;BME280;38815;55.932;-3.232;2022-09-21T07:10:11;101480.03;;;18.61;62.19
52953;BME280;38815;55.932;-3.232;2022-09-21T07:12:36;101479.28;;;18.66;62.13
52953;BME280;38815;55.932;-3.232;2022-09-21T07:15:02;101474.91;;;18.65;62.10
52953;BME280;38815;55.932;-3.232;2022-09-21T07:17:31;101466.94;;;18.69;62.30
52953;BME280;38815;55.932;-3.232;2022-09-21T07:19:57;101462.56;;;18.68;62.73
52953;BME280;38815;55.932;-3.232;2022-09-21T07:22:22;101460.53;;;18.69;62.51
52953;BME280;38815;55.932;-3.232;2022-09-21T07:24:48;101463.09;;;18.67;62.55
52953;BME280;38815;55.932;-3.232;2022-09-21T07:27:14;101459.22;;;18.70;62.50
52953;BME280;38815;55.932;-3.232;2022-09-21T07:29:41;101447.44;;;18.71;62.62
52953;BME280;38815;55.932;-3.232;2022-09-21T07:32:06;101444.59;;;18.71;62.87
52953;BME280;38815;55.932;-3.232;2022-09-21T07:34:34;101442.53;;;18.72;63.09
52953;BME280;38815;55.932;-3.232;2022-09-21T07:37:01;101446.66;;;18.71;63.12
52953;BME280;38815;55.932;-3.232;2022-09-21T07:39:26;101437.41;;;18.70;62.94
52953;BME280;38815;55.932;-3.232;2022-09-21T07:41:52;101453.06;;;18.71;62.76
52953;BME280;38815;55.932;-3.232;2022-09-21T07:44:17;101439.69;;;18.72;62.64
52953;BME280;38815;55.932;-3.232;2022-09-21T07:46:45;101443.31;;;18.72;62.43
52953;BME280;38815;55.932;-3.232;2022-09-21T07:49:12;101448.19;;;18.72;62.13
52953;BME280;38815;55.932;-3.232;2022-09-21T07:51:37;101449.72;;;18.73;61.89
52953;BME280;38815;55.932;-3.232;2022-09-21T07:54:02;101444.81;;;18.73;61.88
52953;BME280;38815;55.932;-3.232;2022-09-21T07:56:29;101448.44;;;18.74;61.93
52953;BME280;38815;55.932;-3.232;2022-09-21T07:58:54;101447.16;;;18.75;61.82
52953;BME280;38815;55.932;-3.232;2022-09-21T08:01:32;101443.56;;;18.74;61.86
52953;BME280;38815;55.932;-3.232;2022-09-21T08:03:58;101443.31;;;18.72;61.50
52953;BME280;38815;55.932;-3.232;2022-09-21T08:06:25;101435.59;;;18.73;62.05
52953;BME280;38815;55.932;-3.232;2022-09-21T08:08:51;101438.94;;;18.71;61.53
52953;BME280;38815;55.932;-3.232;2022-09-21T08:11:17;101435.34;;;18.71;61.47
52953;BME280;38815;55.932;-3.232;2022-09-21T08:13:44;101441.00;;;18.71;61.32
52953;BME280;38815;55.932;-3.232;2022-09-21T08:16:09;101436.13;;;18.71;61.63
52953;BME280;38815;55.932;-3.232;2022-09-21T08:18:40;101429.44;;;18.69;61.63
52953;BME280;38815;55.932;-3.232;2022-09-21T08:21:06;101433.06;;;18.69;61.77
52953;BME280;38815;55.932;-3.232;2022-09-21T08:23:32;101430.22;;;18.69;61.52
52953;BME280;38815;55.932;-3.232;2022-09-21T08:25:58;101423.28;;;18.70;61.39
52953;BME280;38815;55.932;-3.232;2022-09-21T08:28:24;101427.66;;;18.71;61.56
52953;BME280;38815;55.932;-3.232;2022-09-21T08:30:50;101418.66;;;18.73;61.68
52953;BME280;38815;55.932;-3.232;2022-09-21T08:33:15;101415.56;;;18.71;61.38
52953;BME280;38815;55.932;-3.232;2022-09-21T08:35:40;101417.88;;;18.72;61.25
52953;BME280;38815;55.932;-3.232;2022-09-21T08:38:05;101418.41;;;18.71;61.65
52953;BME280;38815;55.932;-3.232;2022-09-21T08:40:31;101419.69;;;18.70;61.42
52953;BME280;38815;55.932;-3.232;2022-09-21T08:43:04;101415.56;;;18.71;61.34
52953;BME280;38815;55.932;-3.232;2022-09-21T08:45:33;101415.31;;;18.69;61.76
52953;BME280;38815;55.932;-3.232;2022-09-21T08:48:02;101426.63;;;18.69;61.72
52953;BME280;38815;55.932;-3.232;2022-09-21T08:50:36;101414.56;;;18.68;61.76
52953;BME280;38815;55.932;-3.232;2022-09-21T08:53:17;101414.56;;;18.68;61.72
52953;BME280;38815;55.932;-3.232;2022-09-21T08:55:43;101423.81;;;18.69;61.88
52953;BME280;38815;55.932;-3.232;2022-09-21T08:58:28;101410.97;;;18.68;61.72
52953;BME280;38815;55.932;-3.232;2022-09-21T09:06:13;101406.84;;;18.69;62.08
52953;BME280;38815;55.932;-3.232;2022-09-21T09:21:25;101423.28;;;18.70;62.10
52953;BME280;38815;55.932;-3.232;2022-09-21T09:23:57;101422.00;;;18.71;62.22
52953;BME280;38815;55.932;-3.232;2022-09-21T09:26:32;101417.63;;;18.70;62.33
52953;BME280;38815;55.932;-3.232;2022-09-21T09:28:59;101416.34;;;18.71;62.09
52953;BME280;38815;55.932;-3.232;2022-09-21T09:31:33;101410.72;;;18.71;62.58
52953;BME280;38815;55.932;-3.232;2022-09-21T09:34:09;101417.09;;;18.72;62.77
52953;BME280;38815;55.932;-3.232;2022-09-21T09:36:36;101418.66;;;18.73;62.30
52953;BME280;38815;55.932;-3.232;2022-09-21T09:39:11;101413.75;;;18.73;62.56
52953;BME280;38815;55.932;-3.232;2022-09-21T09:50:01;101409.41;;;18.72;62.77
52953;BME280;38815;55.932;-3.232;2022-09-21T09:52:28;101411.44;;;18.72;62.48
52953;BME280;38815;55.932;-3.232;2022-09-21T09:54:54;101402.97;;;18.72;63.01
52953;BME280;38815;55.932;-3.232;2022-09-21T09:57:22;101402.47;;;18.73;62.57
52953;BME280;38815;55.932;-3.232;2022-09-21T09:59:49;101408.88;;;18.74;62.51
52953;BME280;38815;55.932;-3.232;2022-09-21T10:02:20;101405.53;;;18.75;62.69
52953;BME280;38815;55.932;-3.232;2022-09-21T10:04:59;101401.19;;;18.74;62.62
52953;BME280;38815;55.932;-3.232;2022-09-21T10:07:40;101402.72;;;18.75;62.33
52953;BME280;38815;55.932;-3.232;2022-09-21T10:12:47;101397.59;;;18.74;62.78
52953;BME280;38815;55.932;-3.232;2022-09-21T10:15:12;101401.19;;;18.74;62.73
52953;BME280;38815;55.932;-3.232;2022-09-21T10:17:39;101396.31;;;18.75;62.61
52953;BME280;38815;55.932;-3.232;2022-09-21T10:20:05;101398.34;;;18.74;62.36
52953;BME280;38815;55.932;-3.232;2022-09-21T10:22:32;101396.31;;;18.75;62.21
52953;BME280;38815;55.932;-3.232;2022-09-21T10:24:57;101400.66;;;18.76;62.58
52953;BME280;38815;55.932;-3.232;2022-09-21T10:27:29;101390.13;;;18.77;62.70
52953;BME280;38815;55.932;-3.232;2022-09-21T10:29:58;101394.22;;;18.75;62.22
52953;BME280;38815;55.932;-3.232;2022-09-21T10:32:25;101391.41;;;18.75;62.30
52953;BME280;38815;55.932;-3.232;2022-09-21T10:37:32;101395.78;;;18.77;62.15
52953;BME280;38815;55.932;-3.232;2022-09-21T10:39:59;101393.47;;;18.75;62.29
52953;BME280;38815;55.932;-3.232;2022-09-21T10:42:24;101392.19;;;18.76;62.44
52953;BME280;38815;55.932;-3.232;2022-09-21T10:44:51;101386.28;;;18.74;62.48
52953;BME280;38815;55.932;-3.232;2022-09-21T10:47:38;101386.28;;;18.74;62.68
52953;BME280;38815;55.932;-3.232;2022-09-21T10:50:05;101389.09;;;18.74;61.98
52953;BME280;38815;55.932;-3.232;2022-09-21T10:52:43;101378.06;;;18.76;61.85
52953;BME280;38815;55.932;-3.232;2022-09-21T10:55:15;101378.84;;;18.77;61.98
52953;BME280;38815;55.932;-3.232;2022-09-21T10:57:42;101371.88;;;18.77;62.09
52953;BME280;38815;55.932;-3.232;2022-09-21T11:00:25;101369.84;;;18.78;61.65
52953;BME280;38815;55.932;-3.232;2022-09-21T11:02:53;101367.00;;;18.78;61.78
52953;BME280;38815;55.932;-3.232;2022-09-21T11:05:26;101373.44;;;18.79;61.82
52953;BME280;38815;55.932;-3.232;2022-09-21T11:07:55;101374.72;;;18.77;61.90
52953;BME280;38815;55.932;-3.232;2022-09-21T11:10:25;101366.25;;;18.77;61.79
52953;BME280;38815;55.932;-3.232;2022-09-21T11:12:54;101360.59;;;18.77;61.33
52953;BME280;38815;55.932;-3.232;2022-09-21T11:18:01;101358.28;;;18.76;61.54
52953;BME280;38815;55.932;-3.232;2022-09-21T11:30:54;101337.75;;;18.75;61.63
52953;BME280;38815;55.932;-3.232;2022-09-21T11:39:00;101339.28;;;18.77;61.37
52953;BME280;38815;55.932;-3.232;2022-09-21T11:51:20;101326.16;;;18.79;60.85
52953;BME280;38815;55.932;-3.232;2022-09-21T12:01:46;101318.75;;;18.76;61.18
52953;BME280;38815;55.932;-3.232;2022-09-21T12:14:36;101326.44;;;18.75;60.86
52953;BME280;38815;55.932;-3.232;2022-09-21T12:17:28;101319.25;;;18.74;60.85
52953;BME280;38815;55.932;-3.232;2022-09-21T12:25:02;101308.50;;;18.73;60.56
52953;BME280;38815;55.932;-3.232;2022-09-21T12:29:57;101311.56;;;18.75;60.61
52953;BME280;38815;55.932;-3.232;2022-09-21T12:32:41;101305.16;;;18.74;60.76
52953;BME280;38815;55.932;-3.232;2022-09-21T12:37:46;101301.53;;;18.74;60.87
52953;BME280;38815;55.932;-3.232;2022-09-21T12:40:28;101297.19;;;18.73;60.80
52953;BME280;38815;55.932;-3.232;2022-09-21T12:51:36;101287.41;;;18.74;60.31
52953;BME280;38815;55.932;-3.232;2022-09-21T12:53:45;101292.28;;;18.73;60.31
52953;BME280;38815;55.932;-3.232;2022-09-21T12:56:14;101291.78;;;18.75;60.61
52953;BME280;38815;55.932;-3.232;2022-09-21T13:09:17;101278.16;;;18.73;60.42
52953;BME280;38815;55.932;-3.232;2022-09-21T13:11:55;101279.72;;;18.74;60.44
52953;BME280;38815;55.932;-3.232;2022-09-21T13:14:24;101266.88;;;18.73;59.94
52953;BME280;38815;55.932;-3.232;2022-09-21T13:16:58;101262.00;;;18.74;60.41
52953;BME280;38815;55.932;-3.232;2022-09-21T13:19:27;101261.47;;;18.75;60.17
52953;BME280;38815;55.932;-3.232;2022-09-21T13:22:09;101262.78;;;18.74;60.41
52953;BME280;38815;55.932;-3.232;2022-09-21T13:24:37;101252.25;;;18.75;60.24
52953;BME280;38815;55.932;-3.232;2022-09-21T13:27:03;101250.16;;;18.75;60.40
52953;BME280;38815;55.932;-3.232;2022-09-21T13:29:31;101250.16;;;18.75;59.86
52953;BME280;38815;55.932;-3.232;2022-09-21T13:34:29;101248.66;;;18.74;59.71
52953;BME280;38815;55.932;-3.232;2022-09-21T13:47:32;101226.81;;;18.75;59.94
52953;BME280;38815;55.932;-3.232;2022-09-21T13:49:58;101240.41;;;18.77;60.27
52953;BME280;38815;55.932;-3.232;2022-09-21T13:52:32;101221.19;;;18.75;60.20
52953;BME280;38815;55.932;-3.232;2022-09-21T13:55:02;101227.56;;;18.75;60.09
52953;BME280;38815;55.932;-3.232;2022-09-21T13:57:30;101222.69;;;18.76;59.83
52953;BME280;38815;55.932;-3.232;2022-09-21T14:02:31;101221.19;;;18.75;59.41
52953;BME280;38815;55.932;-3.232;2022-09-21T14:05:03;101230.16;;;18.73;59.49
52953;BME280;38815;55.932;-3.232;2022-09-21T14:07:30;101235.78;;;18.73;59.05
52953;BME280;38815;55.932;-3.232;2022-09-21T14:09:58;101220.94;;;18.73;59.53
52953;BME280;38815;55.932;-3.232;2022-09-21T14:12:25;101232.22;;;18.73;59.28
52953;BME280;38815;55.932;-3.232;2022-09-21T14:15:07;101228.63;;;18.72;59.41
52953;BME280;38815;55.932;-3.232;2022-09-21T14:17:37;101223.75;;;18.73;60.02
52953;BME280;38815;55.932;-3.232;2022-09-21T14:20:04;101238.88;;;18.75;59.75
52953;BME280;38815;55.932;-3.232;2022-09-21T14:22:31;101228.34;;;18.76;59.67
52953;BME280;38815;55.932;-3.232;2022-09-21T14:27:41;101220.66;;;18.77;59.28
52953;BME280;38815;55.932;-3.232;2022-09-21T14:30:28;101217.03;;;18.76;59.67
52953;BME280;38815;55.932;-3.232;2022-09-21T14:35:25;101209.34;;;18.77;59.17
52953;BME280;38815;55.932;-3.232;2022-09-21T14:37:52;101205.75;;;18.76;59.43
52953;BME280;38815;55.932;-3.232;2022-09-21T14:40:53;101204.44;;;18.77;59.42
52953;BME280;38815;55.932;-3.232;2022-09-21T14:43:12;101190.09;;;18.75;59.23
52953;BME280;38815;55.932;-3.232;2022-09-21T14:46:23;101194.44;;;18.76;59.30
52953;BME280;38815;55.932;-3.232;2022-09-21T14:48:37;101194.44;;;18.76;59.37
52953;BME280;38815;55.932;-3.232;2022-09-21T14:51:14;101196.50;;;18.75;59.02
52953;BME280;38815;55.932;-3.232;2022-09-21T14:56:40;101190.09;;;18.75;59.04
52953;BME280;38815;55.932;-3.232;2022-09-21T14:59:28;101198.56;;;18.75;59.29
52953;BME280;38815;55.932;-3.232;2022-09-21T15:02:02;101184.97;;;18.73;58.94
52953;BME280;38815;55.932;-3.232;2022-09-21T15:10:26;101183.69;;;18.74;59.08
52953;BME280;38815;55.932;-3.232;2022-09-21T15:13:26;101182.13;;;18.73;59.45
52953;BME280;38815;55.932;-3.232;2022-09-21T15:18:32;101173.66;;;18.73;59.30
52953;BME280;38815;55.932;-3.232;2022-09-21T15:21:03;101165.97;;;18.74;59.29
52953;BME280;38815;55.932;-3.232;2022-09-21T15:23:41;101174.44;;;18.74;59.49
52953;BME280;38815;55.932;-3.232;2022-09-21T15:26:12;101166.72;;;18.74;59.38
52953;BME280;38815;55.932;-3.232;2022-09-21T15:28:42;101156.72;;;18.73;59.48
52953;BME280;38815;55.932;-3.232;2022-09-21T15:31:12;101156.72;;;18.73;59.40
52953;BME280;38815;55.932;-3.232;2022-09-21T15:33:39;101159.53;;;18.73;59.21
52953;BME280;38815;55.932;-3.232;2022-09-21T15:36:06;101154.66;;;18.74;59.37
52953;BME280;38815;55.932;-3.232;2022-09-21T15:38:33;101154.66;;;18.74;59.62
52953;BME280;38815;55.932;-3.232;2022-09-21T15:41:00;101140.53;;;18.74;59.55
52953;BME280;38815;55.932;-3.232;2022-09-21T15:43:26;101138.47;;;18.74;59.23
52953;BME280;38815;55.932;-3.232;2022-09-21T15:48:23;101124.38;;;18.74;59.20
52953;BME280;38815;55.932;-3.232;2022-09-21T15:50:53;101128.47;;;18.73;59.43
52953;BME280;38815;55.932;-3.232;2022-09-21T15:53:24;101125.13;;;18.75;59.14